sensor_id;sensor_type;location;lat;lon;timestamp;P1;durP1;ratioP1;P2;durP2;ratioP2
24277;SDS011;12394;42.692;23.314;2022-08-03T00:00:02;7.47;;;2.77;;
24277;SDS011;12394;42.692;23.314;2022-08-03T00:02:28;3.57;;;2.93;;
24277;SDS011;12394;42.692;23.314;2022-08-03T00:04:53;6.00;;;2.70;;
24277;SDS011;12394;42.692;23.314;2022-08-03T00:07:18;4.43;;;3.07;;
24277;SDS011;12394;42.692;23.314;2022-08-03T00:09:44;3.33;;;2.80;;
24277;SDS011;12394;42.692;23.314;2022-08-03T00:12:09;4.43;;;3.00;;
24277;SDS011;12394;42.692;23.314;2022-08-03T00:14:34;6.20;;;2.90;;
24277;SDS011;12394;42.692;23.314;2022-08-03T00:16:59;3.10;;;2.53;;
24277;SDS011;12394;42.692;23.314;2022-08-03T00:19:25;7.30;;;3.17;;
24277;SDS011;12394;42.692;23.314;2022-08-03T00:21:50;4.20;;;2.50;;
24277;SDS011;12394;42.692;23.314;2022-08-03T00:24:15;4.73;;;2.93;;
24277;SDS011;12394;42.692;23.314;2022-08-03T00:26:40;8.07;;;2.50;;
24277;SDS011;12394;42.692;23.314;2022-08-03T00:29:06;9.77;;;2.73;;
24277;SDS011;12394;42.692;23.314;2022-08-03T00:31:31;2.57;;;2.20;;
24277;SDS011;12394;42.692;23.314;2022-08-03T00:33:56;4.63;;;2.60;;
24277;SDS011;12394;42.692;23.314;2022-08-03T00:36:21;5.10;;;2.80;;
24277;SDS011;12394;42.692;23.314;2022-08-03T00:38:47;4.77;;;2.67;;
24277;SDS011;12394;42.692;23.314;2022-08-03T00:41:12;4.63;;;3.07;;
24277;SDS011;12394;42.692;23.314;2022-08-03T00:43:37;4.03;;;2.87;;
24277;SDS011;12394;42.692;23.314;2022-08-03T00:46:03;6.87;;;2.97;;
24277;SDS011;12394;42.692;23.314;2022-08-03T00:48:28;5.33;;;2.40;;
24277;SDS011;12394;42.692;23.314;2022-08-03T00:50:53;5.20;;;2.67;;
24277;SDS011;12394;42.692;23.314;2022-08-03T00:53:18;4.80;;;2.40;;
24277;SDS011;12394;42.692;23.314;2022-08-03T00:55:44;4.50;;;2.60;;
24277;SDS011;12394;42.692;23.314;2022-08-03T00:58:09;5.63;;;2.60;;
24277;SDS011;12394;42.692;23.314;2022-08-03T01:00:36;7.70;;;2.33;;
24277;SDS011;12394;42.692;23.314;2022-08-03T01:03:03;5.40;;;2.63;;
24277;SDS011;12394;42.692;23.314;2022-08-03T01:05:28;3.93;;;2.67;;
24277;SDS011;12394;42.692;23.314;2022-08-03T01:10:24;5.70;;;2.70;;
24277;SDS011;12394;42.692;23.314;2022-08-03T01:20:31;3.00;;;2.63;;
24277;SDS011;12394;42.692;23.314;2022-08-03T01:30:32;4.97;;;2.30;;
24277;SDS011;12394;42.692;23.314;2022-08-03T01:33:01;2.73;;;2.17;;
24277;SDS011;12394;42.692;23.314;2022-08-03T01:38:13;5.67;;;2.93;;
24277;SDS011;12394;42.692;23.314;2022-08-03T01:40:39;6.33;;;2.50;;
24277;SDS011;12394;42.692;23.314;2022-08-03T01:43:05;5.00;;;2.70;;
24277;SDS011;12394;42.692;23.314;2022-08-03T01:45:31;4.87;;;2.30;;
24277;SDS011;12394;42.692;23.314;2022-08-03T01:47:58;4.00;;;2.80;;
24277;SDS011;12394;42.692;23.314;2022-08-03T01:50:25;4.77;;;2.57;;
24277;SDS011;12394;42.692;23.314;2022-08-03T01:52:51;3.60;;;2.60;;
24277;SDS011;12394;42.692;23.314;2022-08-03T01:55:18;2.40;;;2.20;;
24277;SDS011;12394;42.692;23.314;2022-08-03T01:57:44;7.33;;;2.43;;
24277;SDS011;12394;42.692;23.314;2022-08-03T02:00:10;3.23;;;2.00;;
24277;SDS011;12394;42.692;23.314;2022-08-03T02:02:36;2.77;;;2.53;;
24277;SDS011;12394;42.692;23.314;2022-08-03T02:05:04;3.37;;;2.40;;
24277;SDS011;12394;42.692;23.314;2022-08-03T02:07:29;4.03;;;2.30;;
24277;SDS011;12394;42.692;23.314;2022-08-03T02:09:56;2.80;;;2.60;;
24277;SDS011;12394;42.692;23.314;2022-08-03T02:12:23;5.57;;;2.57;;
24277;SDS011;12394;42.692;23.314;2022-08-03T02:14:49;2.30;;;2.10;;
24277;SDS011;12394;42.692;23.314;2022-08-03T02:17:14;2.63;;;2.43;;
24277;SDS011;12394;42.692;23.314;2022-08-03T02:19:41;3.47;;;2.30;;
24277;SDS011;12394;42.692;23.314;2022-08-03T02:22:07;4.17;;;2.50;;
24277;SDS011;12394;42.692;23.314;2022-08-03T02:24:34;3.20;;;2.20;;
24277;SDS011;12394;42.692;23.314;2022-08-03T02:26:59;2.37;;;2.17;;
24277;SDS011;12394;42.692;23.314;2022-08-03T02:29:26;2.70;;;2.07;;
24277;SDS011;12394;42.692;23.314;2022-08-03T02:31:53;7.10;;;2.60;;
24277;SDS011;12394;42.692;23.314;2022-08-03T02:34:21;4.03;;;2.50;;
24277;SDS011;12394;42.692;23.314;2022-08-03T02:36:50;4.17;;;2.27;;
24277;SDS011;12394;42.692;23.314;2022-08-03T02:39:18;8.33;;;2.33;;
24277;SDS011;12394;42.692;23.314;2022-08-03T02:41:48;5.03;;;2.80;;
24277;SDS011;12394;42.692;23.314;2022-08-03T02:44:15;2.57;;;2.37;;
24277;SDS011;12394;42.692;23.314;2022-08-03T02:46:42;6.37;;;2.60;;
24277;SDS011;12394;42.692;23.314;2022-08-03T02:49:08;4.47;;;2.33;;
24277;SDS011;12394;42.692;23.314;2022-08-03T02:51:35;4.93;;;2.20;;
24277;SDS011;12394;42.692;23.314;2022-08-03T02:54:03;8.63;;;2.50;;
24277;SDS011;12394;42.692;23.314;2022-08-03T02:56:29;9.50;;;2.97;;
24277;SDS011;12394;42.692;23.314;2022-08-03T02:58:55;7.30;;;3.30;;
24277;SDS011;12394;42.692;23.314;2022-08-03T03:01:21;9.13;;;2.63;;
24277;SDS011;12394;42.692;23.314;2022-08-03T03:03:47;5.60;;;2.20;;
24277;SDS011;12394;42.692;23.314;2022-08-03T03:06:13;4.90;;;2.53;;
24277;SDS011;12394;42.692;23.314;2022-08-03T03:08:39;3.90;;;2.90;;
24277;SDS011;12394;42.692;23.314;2022-08-03T03:11:04;5.73;;;2.87;;
24277;SDS011;12394;42.692;23.314;2022-08-03T03:13:31;6.63;;;2.60;;
24277;SDS011;12394;42.692;23.314;2022-08-03T03:15:59;2.50;;;2.30;;
24277;SDS011;12394;42.692;23.314;2022-08-03T03:18:27;5.37;;;2.80;;
24277;SDS011;12394;42.692;23.314;2022-08-03T03:20:53;3.57;;;3.20;;
24277;SDS011;12394;42.692;23.314;2022-08-03T03:23:20;9.07;;;3.40;;
24277;SDS011;12394;42.692;23.314;2022-08-03T03:25:45;8.73;;;3.20;;
24277;SDS011;12394;42.692;23.314;2022-08-03T03:28:11;3.67;;;2.63;;
24277;SDS011;12394;42.692;23.314;2022-08-03T03:30:36;3.93;;;2.67;;
24277;SDS011;12394;42.692;23.314;2022-08-03T03:33:02;6.50;;;2.87;;
24277;SDS011;12394;42.692;23.314;2022-08-03T03:35:27;6.47;;;3.40;;
24277;SDS011;12394;42.692;23.314;2022-08-03T03:37:52;4.90;;;3.30;;
24277;SDS011;12394;42.692;23.314;2022-08-03T03:40:18;6.17;;;2.67;;
24277;SDS011;12394;42.692;23.314;2022-08-03T03:42:43;6.53;;;2.93;;
24277;SDS011;12394;42.692;23.314;2022-08-03T03:45:09;6.70;;;3.00;;
24277;SDS011;12394;42.692;23.314;2022-08-03T03:47:34;4.27;;;2.70;;
24277;SDS011;12394;42.692;23.314;2022-08-03T03:50:03;4.60;;;2.93;;
24277;SDS011;12394;42.692;23.314;2022-08-03T03:52:30;13.43;;;3.20;;
24277;SDS011;12394;42.692;23.314;2022-08-03T03:54:55;12.83;;;4.50;;
24277;SDS011;12394;42.692;23.314;2022-08-03T03:57:20;7.37;;;3.10;;
24277;SDS011;12394;42.692;23.314;2022-08-03T03:59:46;4.40;;;3.13;;
24277;SDS011;12394;42.692;23.314;2022-08-03T04:02:11;10.33;;;3.60;;
24277;SDS011;12394;42.692;23.314;2022-08-03T04:07:44;4.03;;;2.97;;
24277;SDS011;12394;42.692;23.314;2022-08-03T04:10:28;5.90;;;3.40;;
24277;SDS011;12394;42.692;23.314;2022-08-03T04:13:14;7.50;;;3.77;;
24277;SDS011;12394;42.692;23.314;2022-08-03T04:15:40;7.10;;;3.30;;
24277;SDS011;12394;42.692;23.314;2022-08-03T04:18:07;6.87;;;3.03;;
24277;SDS011;12394;42.692;23.314;2022-08-03T04:20:34;8.17;;;3.63;;
24277;SDS011;12394;42.692;23.314;2022-08-03T04:23:00;15.33;;;4.30;;
24277;SDS011;12394;42.692;23.314;2022-08-03T04:25:29;8.67;;;4.03;;
24277;SDS011;12394;42.692;23.314;2022-08-03T04:27:55;6.77;;;3.20;;
24277;SDS011;12394;42.692;23.314;2022-08-03T04:30:23;11.07;;;3.73;;
24277;SDS011;12394;42.692;23.314;2022-08-03T04:32:49;5.57;;;3.33;;
24277;SDS011;12394;42.692;23.314;2022-08-03T04:35:16;7.87;;;3.23;;
24277;SDS011;12394;42.692;23.314;2022-08-03T04:37:42;3.73;;;3.00;;
24277;SDS011;12394;42.692;23.314;2022-08-03T04:40:12;7.10;;;3.90;;
24277;SDS011;12394;42.692;23.314;2022-08-03T04:42:38;6.77;;;3.30;;
24277;SDS011;12394;42.692;23.314;2022-08-03T04:45:04;9.23;;;5.00;;
24277;SDS011;12394;42.692;23.314;2022-08-03T04:47:33;15.47;;;4.50;;
24277;SDS011;12394;42.692;23.314;2022-08-03T04:50:02;9.80;;;4.50;;
24277;SDS011;12394;42.692;23.314;2022-08-03T04:52:28;7.93;;;4.23;;
24277;SDS011;12394;42.692;23.314;2022-08-03T04:54:53;5.80;;;3.80;;
24277;SDS011;12394;42.692;23.314;2022-08-03T04:57:18;6.83;;;3.77;;
24277;SDS011;12394;42.692;23.314;2022-08-03T04:59:44;5.43;;;3.70;;
24277;SDS011;12394;42.692;23.314;2022-08-03T05:02:09;7.60;;;4.03;;
24277;SDS011;12394;42.692;23.314;2022-08-03T05:04:34;9.13;;;4.67;;
24277;SDS011;12394;42.692;23.314;2022-08-03T05:06:59;13.17;;;8.30;;
24277;SDS011;12394;42.692;23.314;2022-08-03T05:09:25;9.67;;;5.13;;
24277;SDS011;12394;42.692;23.314;2022-08-03T05:11:50;12.10;;;4.40;;
24277;SDS011;12394;42.692;23.314;2022-08-03T05:14:15;12.50;;;5.23;;
24277;SDS011;12394;42.692;23.314;2022-08-03T05:16:40;8.97;;;4.77;;
24277;SDS011;12394;42.692;23.314;2022-08-03T05:19:06;11.83;;;4.70;;
24277;SDS011;12394;42.692;23.314;2022-08-03T05:21:31;11.93;;;4.80;;
24277;SDS011;12394;42.692;23.314;2022-08-03T05:23:56;10.60;;;5.03;;
24277;SDS011;12394;42.692;23.314;2022-08-03T05:26:21;10.30;;;4.10;;
24277;SDS011;12394;42.692;23.314;2022-08-03T05:28:46;12.43;;;5.60;;
24277;SDS011;12394;42.692;23.314;2022-08-03T05:31:12;19.57;;;9.73;;
24277;SDS011;12394;42.692;23.314;2022-08-03T05:33:37;17.87;;;7.50;;
24277;SDS011;12394;42.692;23.314;2022-08-03T05:36:03;20.13;;;6.60;;
24277;SDS011;12394;42.692;23.314;2022-08-03T05:38:29;19.30;;;5.77;;
24277;SDS011;12394;42.692;23.314;2022-08-03T05:40:56;13.97;;;5.97;;
24277;SDS011;12394;42.692;23.314;2022-08-03T05:43:21;21.80;;;6.50;;
24277;SDS011;12394;42.692;23.314;2022-08-03T05:45:46;13.07;;;5.03;;
24277;SDS011;12394;42.692;23.314;2022-08-03T05:48:12;17.47;;;5.20;;
24277;SDS011;12394;42.692;23.314;2022-08-03T05:50:37;19.93;;;9.23;;
24277;SDS011;12394;42.692;23.314;2022-08-03T05:53:02;15.97;;;7.93;;
24277;SDS011;12394;42.692;23.314;2022-08-03T05:55:29;13.30;;;5.30;;
24277;SDS011;12394;42.692;23.314;2022-08-03T05:57:54;23.47;;;9.00;;
24277;SDS011;12394;42.692;23.314;2022-08-03T06:00:19;13.00;;;6.33;;
24277;SDS011;12394;42.692;23.314;2022-08-03T06:02:45;9.80;;;6.37;;
24277;SDS011;12394;42.692;23.314;2022-08-03T06:05:10;14.77;;;6.90;;
24277;SDS011;12394;42.692;23.314;2022-08-03T06:07:35;14.97;;;6.07;;
24277;SDS011;12394;42.692;23.314;2022-08-03T06:10:00;12.97;;;6.50;;
24277;SDS011;12394;42.692;23.314;2022-08-03T06:12:27;12.77;;;6.73;;
24277;SDS011;12394;42.692;23.314;2022-08-03T06:14:52;13.67;;;5.50;;
24277;SDS011;12394;42.692;23.314;2022-08-03T06:17:17;13.23;;;6.57;;
24277;SDS011;12394;42.692;23.314;2022-08-03T06:19:42;15.30;;;6.10;;
24277;SDS011;12394;42.692;23.314;2022-08-03T06:22:08;13.47;;;5.83;;
24277;SDS011;12394;42.692;23.314;2022-08-03T06:24:33;19.07;;;7.23;;
24277;SDS011;12394;42.692;23.314;2022-08-03T06:26:58;14.10;;;6.33;;
24277;SDS011;12394;42.692;23.314;2022-08-03T06:29:23;9.13;;;5.90;;
24277;SDS011;12394;42.692;23.314;2022-08-03T06:31:49;10.30;;;5.73;;
24277;SDS011;12394;42.692;23.314;2022-08-03T06:34:14;12.77;;;6.00;;
24277;SDS011;12394;42.692;23.314;2022-08-03T06:36:39;14.50;;;5.43;;
24277;SDS011;12394;42.692;23.314;2022-08-03T06:39:04;12.20;;;5.50;;
24277;SDS011;12394;42.692;23.314;2022-08-03T06:41:30;13.37;;;5.80;;
24277;SDS011;12394;42.692;23.314;2022-08-03T06:43:55;12.53;;;5.53;;
24277;SDS011;12394;42.692;23.314;2022-08-03T06:46:21;12.63;;;6.27;;
24277;SDS011;12394;42.692;23.314;2022-08-03T06:48:46;10.97;;;5.13;;
24277;SDS011;12394;42.692;23.314;2022-08-03T06:51:11;11.77;;;5.00;;
24277;SDS011;12394;42.692;23.314;2022-08-03T06:53:36;8.10;;;4.20;;
24277;SDS011;12394;42.692;23.314;2022-08-03T06:56:05;12.30;;;4.53;;
24277;SDS011;12394;42.692;23.314;2022-08-03T06:58:31;9.33;;;4.57;;
24277;SDS011;12394;42.692;23.314;2022-08-03T07:00:56;10.47;;;4.60;;
24277;SDS011;12394;42.692;23.314;2022-08-03T07:03:21;9.73;;;5.03;;
24277;SDS011;12394;42.692;23.314;2022-08-03T07:05:47;8.20;;;4.70;;
24277;SDS011;12394;42.692;23.314;2022-08-03T07:08:13;13.27;;;5.60;;
24277;SDS011;12394;42.692;23.314;2022-08-03T07:10:38;9.00;;;5.20;;
24277;SDS011;12394;42.692;23.314;2022-08-03T07:13:04;12.23;;;7.30;;
24277;SDS011;12394;42.692;23.314;2022-08-03T07:15:29;16.53;;;8.90;;
24277;SDS011;12394;42.692;23.314;2022-08-03T07:17:55;14.53;;;9.10;;
24277;SDS011;12394;42.692;23.314;2022-08-03T07:20:20;16.00;;;6.03;;
24277;SDS011;12394;42.692;23.314;2022-08-03T07:22:45;9.30;;;5.37;;
24277;SDS011;12394;42.692;23.314;2022-08-03T07:25:10;5.57;;;4.73;;
24277;SDS011;12394;42.692;23.314;2022-08-03T07:27:36;10.53;;;5.00;;
24277;SDS011;12394;42.692;23.314;2022-08-03T07:30:04;14.13;;;4.93;;
24277;SDS011;12394;42.692;23.314;2022-08-03T07:32:29;8.20;;;5.30;;
24277;SDS011;12394;42.692;23.314;2022-08-03T07:34:55;10.23;;;5.23;;
24277;SDS011;12394;42.692;23.314;2022-08-03T07:37:20;10.27;;;5.27;;
24277;SDS011;12394;42.692;23.314;2022-08-03T07:39:46;8.30;;;5.27;;
24277;SDS011;12394;42.692;23.314;2022-08-03T07:42:11;7.30;;;3.77;;
24277;SDS011;12394;42.692;23.314;2022-08-03T07:44:36;9.70;;;4.07;;
24277;SDS011;12394;42.692;23.314;2022-08-03T07:47:03;6.87;;;3.67;;
24277;SDS011;12394;42.692;23.314;2022-08-03T07:49:28;7.40;;;4.30;;
24277;SDS011;12394;42.692;23.314;2022-08-03T07:51:53;7.37;;;3.57;;
24277;SDS011;12394;42.692;23.314;2022-08-03T07:54:37;4.27;;;3.67;;
24277;SDS011;12394;42.692;23.314;2022-08-03T07:57:02;7.10;;;3.60;;
24277;SDS011;12394;42.692;23.314;2022-08-03T07:59:28;7.70;;;4.27;;
24277;SDS011;12394;42.692;23.314;2022-08-03T08:01:53;11.33;;;4.33;;
24277;SDS011;12394;42.692;23.314;2022-08-03T08:04:18;6.77;;;3.50;;
24277;SDS011;12394;42.692;23.314;2022-08-03T08:06:43;6.53;;;3.53;;
24277;SDS011;12394;42.692;23.314;2022-08-03T08:09:09;5.63;;;3.20;;
24277;SDS011;12394;42.692;23.314;2022-08-03T08:11:35;7.90;;;3.77;;
24277;SDS011;12394;42.692;23.314;2022-08-03T08:14:00;5.20;;;3.87;;
24277;SDS011;12394;42.692;23.314;2022-08-03T08:16:26;7.57;;;4.87;;
24277;SDS011;12394;42.692;23.314;2022-08-03T08:18:52;7.70;;;2.93;;
24277;SDS011;12394;42.692;23.314;2022-08-03T08:21:17;6.30;;;2.78;;
24277;SDS011;12394;42.692;23.314;2022-08-03T08:23:43;5.47;;;3.10;;
24277;SDS011;12394;42.692;23.314;2022-08-03T08:26:08;8.13;;;3.70;;
24277;SDS011;12394;42.692;23.314;2022-08-03T08:28:33;12.38;;;5.38;;
24277;SDS011;12394;42.692;23.314;2022-08-03T08:30:58;6.65;;;4.35;;
24277;SDS011;12394;42.692;23.314;2022-08-03T08:33:24;7.40;;;3.50;;
24277;SDS011;12394;42.692;23.314;2022-08-03T08:35:50;5.93;;;3.45;;
24277;SDS011;12394;42.692;23.314;2022-08-03T08:38:15;7.05;;;2.97;;
24277;SDS011;12394;42.692;23.314;2022-08-03T08:40:40;4.30;;;2.38;;
24277;SDS011;12394;42.692;23.314;2022-08-03T08:43:06;5.13;;;2.78;;
24277;SDS011;12394;42.692;23.314;2022-08-03T08:45:31;5.78;;;2.30;;
24277;SDS011;12394;42.692;23.314;2022-08-03T08:47:56;3.70;;;2.60;;
24277;SDS011;12394;42.692;23.314;2022-08-03T08:50:23;5.10;;;2.40;;
24277;SDS011;12394;42.692;23.314;2022-08-03T08:52:49;3.55;;;2.50;;
24277;SDS011;12394;42.692;23.314;2022-08-03T08:55:21;4.07;;;2.55;;
24277;SDS011;12394;42.692;23.314;2022-08-03T08:57:48;6.22;;;3.50;;
24277;SDS011;12394;42.692;23.314;2022-08-03T09:00:14;3.53;;;3.13;;
24277;SDS011;12394;42.692;23.314;2022-08-03T09:02:40;2.10;;;1.80;;
24277;SDS011;12394;42.692;23.314;2022-08-03T09:05:11;2.80;;;2.55;;
24277;SDS011;12394;42.692;23.314;2022-08-03T09:07:37;5.10;;;2.63;;
24277;SDS011;12394;42.692;23.314;2022-08-03T09:10:02;5.88;;;2.90;;
24277;SDS011;12394;42.692;23.314;2022-08-03T09:12:28;2.33;;;2.10;;
24277;SDS011;12394;42.692;23.314;2022-08-03T09:14:53;3.90;;;2.35;;
24277;SDS011;12394;42.692;23.314;2022-08-03T09:17:19;3.47;;;2.28;;
24277;SDS011;12394;42.692;23.314;2022-08-03T09:19:46;2.35;;;2.15;;
24277;SDS011;12394;42.692;23.314;2022-08-03T09:22:27;2.65;;;2.30;;
24277;SDS011;12394;42.692;23.314;2022-08-03T09:27:19;4.03;;;2.30;;
24277;SDS011;12394;42.692;23.314;2022-08-03T09:29:49;5.82;;;3.33;;
24277;SDS011;12394;42.692;23.314;2022-08-03T09:32:14;3.33;;;2.75;;
24277;SDS011;12394;42.692;23.314;2022-08-03T09:34:43;3.88;;;2.30;;
24277;SDS011;12394;42.692;23.314;2022-08-03T09:37:12;5.05;;;2.13;;
24277;SDS011;12394;42.692;23.314;2022-08-03T09:39:39;3.95;;;2.08;;
24277;SDS011;12394;42.692;23.314;2022-08-03T09:42:06;5.07;;;2.10;;
24277;SDS011;12394;42.692;23.314;2022-08-03T09:44:34;5.03;;;2.30;;
24277;SDS011;12394;42.692;23.314;2022-08-03T09:47:01;4.93;;;2.30;;
24277;SDS011;12394;42.692;23.314;2022-08-03T09:49:26;3.15;;;2.05;;
24277;SDS011;12394;42.692;23.314;2022-08-03T09:51:52;2.40;;;2.20;;
24277;SDS011;12394;42.692;23.314;2022-08-03T09:54:26;9.27;;;3.30;;
24277;SDS011;12394;42.692;23.314;2022-08-03T09:56:52;5.07;;;2.80;;
24277;SDS011;12394;42.692;23.314;2022-08-03T09:59:27;4.57;;;2.47;;
24277;SDS011;12394;42.692;23.314;2022-08-03T10:01:53;2.55;;;1.90;;
24277;SDS011;12394;42.692;23.314;2022-08-03T10:04:18;4.20;;;2.40;;
24277;SDS011;12394;42.692;23.314;2022-08-03T10:06:44;2.08;;;1.88;;
24277;SDS011;12394;42.692;23.314;2022-08-03T10:09:13;2.60;;;2.33;;
24277;SDS011;12394;42.692;23.314;2022-08-03T10:11:39;3.03;;;2.70;;
24277;SDS011;12394;42.692;23.314;2022-08-03T10:14:06;3.58;;;2.40;;
24277;SDS011;12394;42.692;23.314;2022-08-03T10:16:35;4.80;;;2.40;;
24277;SDS011;12394;42.692;23.314;2022-08-03T10:19:02;6.18;;;2.50;;
24277;SDS011;12394;42.692;23.314;2022-08-03T10:21:29;2.35;;;1.92;;
24277;SDS011;12394;42.692;23.314;2022-08-03T10:23:55;2.88;;;2.03;;
24277;SDS011;12394;42.692;23.314;2022-08-03T10:26:21;5.15;;;2.42;;
24277;SDS011;12394;42.692;23.314;2022-08-03T10:28:49;3.53;;;2.60;;
24277;SDS011;12394;42.692;23.314;2022-08-03T10:31:16;3.50;;;2.13;;
24277;SDS011;12394;42.692;23.314;2022-08-03T10:33:43;5.15;;;2.40;;
24277;SDS011;12394;42.692;23.314;2022-08-03T10:36:08;1.77;;;1.67;;
24277;SDS011;12394;42.692;23.314;2022-08-03T10:38:39;2.60;;;1.90;;
24277;SDS011;12394;42.692;23.314;2022-08-03T10:41:07;5.55;;;3.75;;
24277;SDS011;12394;42.692;23.314;2022-08-03T10:43:35;3.63;;;2.13;;
24277;SDS011;12394;42.692;23.314;2022-08-03T10:46:02;3.85;;;2.80;;
24277;SDS011;12394;42.692;23.314;2022-08-03T10:48:29;3.87;;;2.90;;
24277;SDS011;12394;42.692;23.314;2022-08-03T10:50:55;2.83;;;2.47;;
24277;SDS011;12394;42.692;23.314;2022-08-03T10:53:33;8.40;;;3.10;;
24277;SDS011;12394;42.692;23.314;2022-08-03T10:55:58;2.60;;;2.30;;
24277;SDS011;12394;42.692;23.314;2022-08-03T11:01:09;2.90;;;1.97;;
24277;SDS011;12394;42.692;23.314;2022-08-03T11:06:19;3.50;;;2.00;;
24277;SDS011;12394;42.692;23.314;2022-08-03T11:08:45;4.97;;;2.40;;
24277;SDS011;12394;42.692;23.314;2022-08-03T11:16:40;2.90;;;2.13;;
24277;SDS011;12394;42.692;23.314;2022-08-03T11:19:10;2.00;;;1.80;;
24277;SDS011;12394;42.692;23.314;2022-08-03T11:35:07;2.20;;;2.00;;
24277;SDS011;12394;42.692;23.314;2022-08-03T11:37:33;1.93;;;1.73;;
24277;SDS011;12394;42.692;23.314;2022-08-03T11:39:59;4.97;;;2.50;;
24277;SDS011;12394;42.692;23.314;2022-08-03T11:44:51;2.50;;;1.83;;
24277;SDS011;12394;42.692;23.314;2022-08-03T11:47:17;3.10;;;2.20;;
24277;SDS011;12394;42.692;23.314;2022-08-03T11:49:44;4.03;;;2.00;;
24277;SDS011;12394;42.692;23.314;2022-08-03T11:52:10;3.60;;;2.30;;
24277;SDS011;12394;42.692;23.314;2022-08-03T11:54:36;2.10;;;1.90;;
24277;SDS011;12394;42.692;23.314;2022-08-03T11:57:01;4.27;;;2.73;;
24277;SDS011;12394;42.692;23.314;2022-08-03T11:59:33;2.83;;;2.20;;
24277;SDS011;12394;42.692;23.314;2022-08-03T12:02:08;2.57;;;2.37;;
24277;SDS011;12394;42.692;23.314;2022-08-03T12:07:22;2.97;;;2.40;;
24277;SDS011;12394;42.692;23.314;2022-08-03T12:10:07;3.07;;;2.10;;
24277;SDS011;12394;42.692;23.314;2022-08-03T12:12:32;3.87;;;2.60;;
24277;SDS011;12394;42.692;23.314;2022-08-03T12:14:57;4.20;;;2.80;;
24277;SDS011;12394;42.692;23.314;2022-08-03T12:17:23;6.30;;;3.23;;
24277;SDS011;12394;42.692;23.314;2022-08-03T12:19:55;4.07;;;2.90;;
24277;SDS011;12394;42.692;23.314;2022-08-03T12:22:31;2.80;;;2.60;;
24277;SDS011;12394;42.692;23.314;2022-08-03T12:24:56;2.80;;;2.30;;
24277;SDS011;12394;42.692;23.314;2022-08-03T12:27:22;3.37;;;2.10;;
24277;SDS011;12394;42.692;23.314;2022-08-03T12:29:49;4.20;;;2.90;;
24277;SDS011;12394;42.692;23.314;2022-08-03T12:32:15;3.53;;;2.70;;
24277;SDS011;12394;42.692;23.314;2022-08-03T12:34:44;3.27;;;2.37;;
24277;SDS011;12394;42.692;23.314;2022-08-03T12:37:09;6.80;;;2.37;;
24277;SDS011;12394;42.692;23.314;2022-08-03T12:39:35;4.63;;;2.20;;
24277;SDS011;12394;42.692;23.314;2022-08-03T12:42:00;7.33;;;4.97;;
24277;SDS011;12394;42.692;23.314;2022-08-03T12:44:29;2.60;;;2.40;;
24277;SDS011;12394;42.692;23.314;2022-08-03T12:46:56;2.23;;;2.03;;
24277;SDS011;12394;42.692;23.314;2022-08-03T12:49:22;5.03;;;2.40;;
24277;SDS011;12394;42.692;23.314;2022-08-03T12:54:16;3.30;;;2.27;;
24277;SDS011;12394;42.692;23.314;2022-08-03T12:59:23;5.07;;;2.10;;
24277;SDS011;12394;42.692;23.314;2022-08-03T13:01:49;4.93;;;2.10;;
24277;SDS011;12394;42.692;23.314;2022-08-03T13:04:23;4.77;;;2.30;;
24277;SDS011;12394;42.692;23.314;2022-08-03T13:06:56;2.47;;;1.80;;
24277;SDS011;12394;42.692;23.314;2022-08-03T13:09:21;4.70;;;2.13;;
24277;SDS011;12394;42.692;23.314;2022-08-03T13:12:03;2.90;;;2.00;;
24277;SDS011;12394;42.692;23.314;2022-08-03T13:14:28;4.67;;;2.27;;
24277;SDS011;12394;42.692;23.314;2022-08-03T13:16:53;2.87;;;2.20;;
24277;SDS011;12394;42.692;23.314;2022-08-03T13:19:19;6.60;;;2.40;;
24277;SDS011;12394;42.692;23.314;2022-08-03T13:21:44;4.67;;;2.10;;
24277;SDS011;12394;42.692;23.314;2022-08-03T13:24:12;2.67;;;1.97;;
24277;SDS011;12394;42.692;23.314;2022-08-03T13:26:38;4.77;;;2.97;;
24277;SDS011;12394;42.692;23.314;2022-08-03T13:29:03;5.13;;;2.33;;
24277;SDS011;12394;42.692;23.314;2022-08-03T13:31:28;9.90;;;2.90;;
24277;SDS011;12394;42.692;23.314;2022-08-03T13:33:53;5.87;;;2.50;;
24277;SDS011;12394;42.692;23.314;2022-08-03T13:36:19;5.17;;;2.80;;
24277;SDS011;12394;42.692;23.314;2022-08-03T13:38:44;4.53;;;2.20;;
24277;SDS011;12394;42.692;23.314;2022-08-03T13:41:09;3.80;;;2.90;;
24277;SDS011;12394;42.692;23.314;2022-08-03T13:43:34;4.53;;;2.83;;
24277;SDS011;12394;42.692;23.314;2022-08-03T13:46:00;7.90;;;2.90;;
24277;SDS011;12394;42.692;23.314;2022-08-03T13:48:25;3.30;;;2.50;;
24277;SDS011;12394;42.692;23.314;2022-08-03T13:50:50;2.97;;;2.33;;
24277;SDS011;12394;42.692;23.314;2022-08-03T13:53:15;3.23;;;2.80;;
24277;SDS011;12394;42.692;23.314;2022-08-03T13:55:41;3.80;;;2.80;;
24277;SDS011;12394;42.692;23.314;2022-08-03T13:58:06;2.30;;;2.10;;
24277;SDS011;12394;42.692;23.314;2022-08-03T14:00:33;3.17;;;2.57;;
24277;SDS011;12394;42.692;23.314;2022-08-03T14:02:59;3.77;;;2.63;;
24277;SDS011;12394;42.692;23.314;2022-08-03T14:05:25;3.00;;;2.70;;
24277;SDS011;12394;42.692;23.314;2022-08-03T14:07:50;2.60;;;2.33;;
24277;SDS011;12394;42.692;23.314;2022-08-03T14:10:15;4.73;;;2.93;;
24277;SDS011;12394;42.692;23.314;2022-08-03T14:12:41;9.30;;;2.80;;
24277;SDS011;12394;42.692;23.314;2022-08-03T14:15:07;5.77;;;2.90;;
24277;SDS011;12394;42.692;23.314;2022-08-03T14:17:34;6.27;;;2.97;;
24277;SDS011;12394;42.692;23.314;2022-08-03T14:19:59;2.63;;;2.43;;
24277;SDS011;12394;42.692;23.314;2022-08-03T14:22:24;7.53;;;3.00;;
24277;SDS011;12394;42.692;23.314;2022-08-03T14:24:49;3.33;;;2.83;;
24277;SDS011;12394;42.692;23.314;2022-08-03T14:27:15;3.83;;;2.80;;
24277;SDS011;12394;42.692;23.314;2022-08-03T14:29:40;4.43;;;3.07;;
24277;SDS011;12394;42.692;23.314;2022-08-03T14:32:05;5.90;;;2.73;;
24277;SDS011;12394;42.692;23.314;2022-08-03T14:34:31;5.40;;;2.60;;
24277;SDS011;12394;42.692;23.314;2022-08-03T14:36:56;4.00;;;2.90;;
24277;SDS011;12394;42.692;23.314;2022-08-03T14:39:21;4.97;;;3.30;;
24277;SDS011;12394;42.692;23.314;2022-08-03T14:41:46;5.97;;;2.70;;
24277;SDS011;12394;42.692;23.314;2022-08-03T14:44:12;5.03;;;2.63;;
24277;SDS011;12394;42.692;23.314;2022-08-03T14:46:38;8.43;;;3.13;;
24277;SDS011;12394;42.692;23.314;2022-08-03T14:49:03;11.07;;;4.00;;
24277;SDS011;12394;42.692;23.314;2022-08-03T14:51:29;4.00;;;2.67;;
24277;SDS011;12394;42.692;23.314;2022-08-03T14:53:54;3.07;;;2.70;;
24277;SDS011;12394;42.692;23.314;2022-08-03T14:56:19;5.70;;;3.40;;
24277;SDS011;12394;42.692;23.314;2022-08-03T14:58:46;3.00;;;2.40;;
24277;SDS011;12394;42.692;23.314;2022-08-03T15:01:11;7.10;;;4.57;;
24277;SDS011;12394;42.692;23.314;2022-08-03T15:03:37;4.87;;;3.30;;
24277;SDS011;12394;42.692;23.314;2022-08-03T15:06:02;5.87;;;3.10;;
24277;SDS011;12394;42.692;23.314;2022-08-03T15:08:27;4.93;;;2.60;;
24277;SDS011;12394;42.692;23.314;2022-08-03T15:10:53;9.67;;;4.23;;
24277;SDS011;12394;42.692;23.314;2022-08-03T15:13:18;3.97;;;3.27;;
24277;SDS011;12394;42.692;23.314;2022-08-03T15:15:44;3.37;;;3.07;;
24277;SDS011;12394;42.692;23.314;2022-08-03T15:18:09;8.87;;;3.70;;
24277;SDS011;12394;42.692;23.314;2022-08-03T15:20:35;5.10;;;3.17;;
24277;SDS011;12394;42.692;23.314;2022-08-03T15:23:00;6.13;;;3.07;;
24277;SDS011;12394;42.692;23.314;2022-08-03T15:25:26;5.13;;;3.17;;
24277;SDS011;12394;42.692;23.314;2022-08-03T15:27:51;4.50;;;2.70;;